Tontitown, Arkansas
Current Conditions -  °F | °C
As of 8:48 PM on Wednesday 26 Nov 2014 (Local Time) from KASG Reporting Station
Clear Clear  
Wind Chill: 28°   Ceiling: Unl
Heat Index: 37°   Visibility: 10mi
Dew Point: 25°   Wind: 17mph
Humidity: 60%   Direction: 310°NW
Pressure: 30.28"   Gusts: 29mph
Location:  36.18°N, 94.23°W
Report Text: KASG 270248Z 31015G25KT 10SM SKC 03/M04 A3028 RMK LAST
Loading
Personal Weather Stations






























Interactive Weather Map New forecast layout! Learn more

10-Day Weather Forecast

Advertisements
Track Severe Weather on mobile